Time;durP1;ratioP1;P1;durP2;ratioP2;P2;SDS_P1;SDS_P2;PMS_P1;PMS_P2;Temp;Humidity;BMP_temperature;BMP_pressure;BME280_temperature;BME280_humidity;BME280_pressure;Samples;Min_cycle;Max_cycle;Signal;HPM_P1;HPM_P2
2023/05/20 00:00:24;;;;;;;21.77;13.30;;;;;;;14.70;69.47;95534.50;5034651;28;20044;-79
2023/05/20 00:02:49;;;;;;;25.10;12.55;;;;;;;14.69;69.56;95527.56;5041862;28;20025;-79
2023/05/20 00:05:15;;;;;;;28.08;14.77;;;;;;;14.61;69.80;95533.56;5058434;28;20037;-79
2023/05/20 00:07:40;;;;;;;31.02;13.95;;;;;;;14.19;69.87;95447.16;5056918;28;20351;-79
2023/05/20 00:10:06;;;;;;;26.13;13.50;;;;;;;14.00;69.60;95419.72;5052082;28;20037;-78
2023/05/20 00:12:31;;;;;;;26.48;12.35;;;;;;;14.84;69.74;95551.38;5044505;28;20029;-79
2023/05/20 00:14:57;;;;;;;32.30;13.98;;;;;;;14.57;69.39;95519.22;5057672;28;20077;-79
2023/05/20 00:17:24;;;;;;;26.30;12.90;;;;;;;14.28;69.34;95464.09;5055651;28;20032;-79
2023/05/20 00:19:49;;;;;;;25.95;12.95;;;;;;;14.18;69.39;95450.94;5058531;28;20029;-79
2023/05/20 00:22:15;;;;;;;28.48;12.88;;;;;;;14.47;69.21;95496.16;5058279;28;20552;-79
2023/05/20 00:24:42;;;;;;;27.85;12.75;;;;;;;14.50;69.24;95508.88;5057427;28;20155;-79
2023/05/20 00:27:07;;;;;;;24.85;13.10;;;;;;;14.14;69.40;95443.78;5042169;28;20156;-78
2023/05/20 00:29:33;;;;;;;23.33;12.25;;;;;;;14.60;69.25;95515.97;5053967;28;20072;-79
2023/05/20 00:31:58;;;;;;;21.85;12.25;;;;;;;14.53;69.30;95515.53;5056581;28;20040;-79
2023/05/20 00:34:24;;;;;;;25.55;12.80;;;;;;;14.39;69.56;95488.78;5055833;28;20037;-79
2023/05/20 00:36:50;;;;;;;25.67;12.23;;;;;;;13.76;69.32;95397.66;5057482;28;20573;-79
2023/05/20 00:39:15;;;;;;;23.13;12.35;;;;;;;14.16;69.65;95468.28;5056012;28;20032;-79
2023/05/20 00:41:41;;;;;;;25.67;13.02;;;;;;;14.23;69.73;95471.38;5053570;28;20101;-79
2023/05/20 00:44:06;;;;;;;24.52;12.80;;;;;;;14.43;69.44;95508.47;5039666;28;20041;-79
2023/05/20 00:46:32;;;;;;;23.17;13.30;;;;;;;14.51;69.83;95520.34;5055487;28;20483;-79
2023/05/20 00:48:58;;;;;;;21.38;13.15;;;;;;;14.48;69.79;95524.41;5057158;28;20086;-79
2023/05/20 00:51:23;;;;;;;22.25;13.10;;;;;;;14.17;69.78;95480.53;5055454;28;20040;-79
2023/05/20 00:53:50;;;;;;;22.42;13.27;;;;;;;14.23;70.02;95477.50;5055245;28;20139;-79
2023/05/20 00:56:17;;;;;;;25.73;12.98;;;;;;;14.46;70.08;95513.22;5055796;28;20052;-79
2023/05/20 00:58:43;;;;;;;26.25;13.57;;;;;;;14.49;69.53;95509.19;5054170;28;20075;-79
2023/05/20 01:01:08;;;;;;;29.42;13.35;;;;;;;14.10;69.75;95451.56;5057246;28;20032;-79
2023/05/20 01:03:34;;;;;;;34.50;13.57;;;;;;;14.04;69.82;95459.91;5057754;28;20047;-79
2023/05/20 01:06:00;;;;;;;28.55;13.32;;;;;;;14.23;69.58;95488.19;5056065;28;20039;-79
2023/05/20 01:08:27;;;;;;;20.35;12.43;;;;;;;14.22;69.85;95488.47;5056726;28;20040;-79
2023/05/20 01:11:19;;;;;;;30.58;13.55;;;;;;;13.94;69.70;95444.06;5056739;28;20032;-79
2023/05/20 01:13:50;;;;;;;24.33;12.50;;;;;;;13.99;69.73;95465.31;5055444;28;20032;-79
2023/05/20 01:16:19;;;;;;;25.85;13.68;;;;;;;14.38;69.63;95521.88;5056176;28;20158;-79
2023/05/20 01:18:47;;;;;;;27.27;12.90;;;;;;;14.35;69.73;95525.09;5056080;28;20024;-79
2023/05/20 01:21:14;;;;;;;32.28;14.32;;;;;;;13.86;69.51;95467.63;5055562;28;20059;-79
2023/05/20 01:23:41;;;;;;;22.92;13.10;;;;;;;14.24;69.56;95523.66;5035560;28;20488;-79
2023/05/20 01:26:07;;;;;;;22.00;12.48;;;;;;;14.22;69.62;95513.28;5046900;28;20033;-79
2023/05/20 01:28:35;;;;;;;22.17;12.57;;;;;;;14.09;70.00;95503.31;5058476;28;20093;-79
2023/05/20 01:31:04;;;;;;;23.35;12.93;;;;;;;14.20;69.79;95525.31;5061103;28;20461;-79
2023/05/20 01:33:34;;;;;;;26.00;12.15;;;;;;;14.17;69.83;95536.56;5061210;28;20052;-79
2023/05/20 01:36:00;;;;;;;19.20;12.50;;;;;;;13.89;69.95;95484.91;5042743;28;20101;-79
2023/05/20 01:38:26;;;;;;;24.58;12.85;;;;;;;13.80;70.26;95470.66;5056789;28;20040;-80
2023/05/20 01:40:53;;;;;;;24.13;13.57;;;;;;;13.99;69.91;95508.78;5034531;28;20130;-80
2023/05/20 01:43:19;;;;;;;22.83;12.15;;;;;;;13.99;69.91;95505.31;5036426;28;20040;-80
2023/05/20 01:45:46;;;;;;;33.00;13.52;;;;;;;13.87;69.81;95485.22;5055071;28;20013;-80
2023/05/20 01:48:12;;;;;;;21.52;12.30;;;;;;;13.84;70.07;95484.97;5055084;28;20036;-80
2023/05/20 01:50:38;;;;;;;27.25;13.13;;;;;;;13.42;69.97;95417.28;5056464;28;20036;-80
2023/05/20 01:53:04;;;;;;;23.40;12.23;;;;;;;14.04;69.71;95521.25;5049756;28;20065;-80
2023/05/20 01:55:30;;;;;;;22.23;13.20;;;;;;;13.92;70.00;95489.69;5041861;28;20075;-80
2023/05/20 01:57:55;;;;;;;25.50;12.35;;;;;;;13.72;69.89;95474.75;5046979;28;20482;-80
2023/05/20 02:00:21;;;;;;;19.13;13.02;;;;;;;13.74;70.14;95474.44;5043546;28;20028;-80
2023/05/20 02:02:46;;;;;;;30.58;13.68;;;;;;;13.60;69.99;95463.69;5053903;28;20040;-80
2023/05/20 02:05:12;;;;;;;22.23;12.77;;;;;;;13.86;69.98;95504.94;5053446;28;20032;-81
2023/05/20 02:07:37;;;;;;;22.52;12.50;;;;;;;13.36;70.71;95454.91;5054848;28;20151;-80
2023/05/20 02:10:03;;;;;;;24.83;12.63;;;;;;;13.22;70.48;95416.72;5054821;28;20518;-80
2023/05/20 02:12:29;;;;;;;22.92;12.75;;;;;;;13.65;70.31;95484.97;5038128;28;20029;-80
2023/05/20 02:14:54;;;;;;;21.63;12.98;;;;;;;13.67;70.64;95492.66;5052227;28;20017;-80
2023/05/20 02:17:20;;;;;;;25.48;13.07;;;;;;;13.68;70.35;95488.91;5054850;28;20047;-80
2023/05/20 02:19:46;;;;;;;28.55;12.85;;;;;;;13.62;70.37;95479.38;5033825;28;20563;-80
2023/05/20 02:22:12;;;;;;;25.17;13.13;;;;;;;13.41;70.38;95447.66;5054079;28;20106;-80
2023/05/20 02:24:37;;;;;;;23.92;12.15;;;;;;;13.73;70.53;95504.84;5054816;28;20045;-80
2023/05/20 02:27:05;;;;;;;24.00;12.68;;;;;;;13.57;70.83;95490.91;5053941;28;20047;-80
2023/05/20 02:29:30;;;;;;;24.50;12.63;;;;;;;13.66;70.86;95499.06;5053960;28;20036;-80
2023/05/20 02:31:56;;;;;;;27.55;11.70;;;;;;;13.28;70.81;95437.66;5053344;28;20115;-80
2023/05/20 02:34:21;;;;;;;19.77;12.13;;;;;;;13.53;70.42;95479.22;5055225;28;20090;-80
2023/05/20 02:36:47;;;;;;;22.85;12.27;;;;;;;13.50;70.63;95477.91;5054514;28;20025;-80
2023/05/20 02:39:12;;;;;;;25.02;11.93;;;;;;;13.52;70.53;95477.63;5053210;28;20135;-79
2023/05/20 02:41:38;;;;;;;22.60;11.98;;;;;;;13.26;70.47;95436.38;5051343;28;20064;-79
2023/05/20 02:44:03;;;;;;;21.67;12.90;;;;;;;13.26;70.43;95447.84;5054845;28;20483;-79
2023/05/20 02:46:30;;;;;;;20.77;12.32;;;;;;;13.34;70.55;95457.06;5042464;28;20022;-80
2023/05/20 02:48:55;;;;;;;25.17;12.82;;;;;;;13.23;70.41;95447.59;5046757;28;20025;-79
2023/05/20 02:51:21;;;;;;;24.25;12.23;;;;;;;13.08;70.30;95430.69;5052086;28;20198;-79
2023/05/20 02:53:46;;;;;;;25.27;10.73;;;;;;;13.22;70.57;95468.09;5054219;28;20044;-79
2023/05/20 02:56:12;;;;;;;18.85;11.85;;;;;;;13.21;70.80;95469.19;5054537;28;20557;-79
2023/05/20 02:58:38;;;;;;;29.17;12.27;;;;;;;12.94;70.69;95432.44;5052564;28;20064;-79
2023/05/20 03:01:04;;;;;;;19.58;12.68;;;;;;;13.09;70.69;95460.75;5051820;28;20400;-79
2023/05/20 03:03:30;;;;;;;19.30;10.95;;;;;;;13.20;71.22;95485.47;5052696;28;20090;-80
2023/05/20 03:05:55;;;;;;;25.80;11.60;;;;;;;13.20;71.56;95488.13;5052353;28;20037;-79
2023/05/20 03:08:21;;;;;;;23.98;12.32;;;;;;;13.22;71.25;95491.28;5054092;28;20032;-79
2023/05/20 03:10:50;;;;;;;21.23;11.90;;;;;;;12.80;70.86;95431.50;5053692;28;20412;-80
2023/05/20 03:13:16;;;;;;;19.85;11.38;;;;;;;13.32;71.30;95521.28;5053450;28;20033;-79
2023/05/20 03:15:44;;;;;;;18.83;11.00;;;;;;;13.10;71.35;95486.31;5032002;28;20040;-79
2023/05/20 03:18:09;;;;;;;26.38;12.80;;;;;;;12.84;71.24;95447.69;5051596;28;20514;-80
2023/05/20 03:20:38;;;;;;;27.15;12.93;;;;;;;12.77;71.28;95450.69;5051963;28;20032;-80
2023/05/20 03:23:04;;;;;;;30.23;13.45;;;;;;;13.24;71.42;95526.41;5053284;28;20109;-80
2023/05/20 03:25:30;;;;;;;28.25;12.85;;;;;;;12.44;71.12;95412.38;5051683;28;20136;-79
2023/05/20 03:27:58;;;;;;;31.50;13.95;;;;;;;13.08;71.55;95497.25;5037381;28;20079;-79
2023/05/20 03:30:24;;;;;;;22.98;13.85;;;;;;;12.98;71.42;95477.91;5050902;28;20033;-80
2023/05/20 03:32:50;;;;;;;31.08;12.85;;;;;;;13.08;71.43;95481.28;5051314;28;20063;-79
2023/05/20 03:35:16;;;;;;;25.00;12.57;;;;;;;12.63;71.86;95439.91;5051750;28;20021;-79
2023/05/20 03:37:41;;;;;;;29.58;13.15;;;;;;;12.67;72.18;95459.53;5053085;28;20055;-80
2023/05/20 03:40:11;;;;;;;38.85;15.27;;;;;;;12.70;72.17;95456.34;5048080;28;20029;-80
2023/05/20 03:42:37;;;;;;;30.05;13.77;;;;;;;12.96;71.59;95490.72;5038828;28;20029;-80
2023/05/20 03:45:03;;;;;;;36.70;14.82;;;;;;;13.03;71.88;95504.50;5053141;28;20744;-80
2023/05/20 03:47:29;;;;;;;24.48;13.25;;;;;;;13.08;71.93;95501.78;5044487;28;20033;-80
2023/05/20 03:49:55;;;;;;;25.60;13.65;;;;;;;12.96;71.92;95483.53;5042822;28;20093;-80
2023/05/20 03:52:20;;;;;;;36.40;14.80;;;;;;;13.29;72.09;95537.81;5052042;28;20052;-79
2023/05/20 03:54:46;;;;;;;30.85;15.82;;;;;;;13.07;72.16;95494.84;5052613;28;20032;-79
2023/05/20 03:57:12;;;;;;;29.65;14.45;;;;;;;12.82;72.18;95460.47;5038768;28;20052;-79
2023/05/20 03:59:37;;;;;;;30.95;13.43;;;;;;;13.37;72.41;95547.84;5044156;28;20033;-79
2023/05/20 04:02:03;;;;;;;22.83;12.98;;;;;;;13.20;72.13;95522.75;5051164;28;20126;-79
2023/05/20 04:04:29;;;;;;;22.45;13.80;;;;;;;13.47;72.20;95553.09;5048953;28;20635;-80
2023/05/20 04:06:55;;;;;;;39.15;14.73;;;;;;;12.90;72.02;95460.66;5037533;28;20214;-80
2023/05/20 04:09:21;;;;;;;25.60;14.25;;;;;;;13.53;72.41;95548.50;5051134;28;20112;-80
2023/05/20 04:11:46;;;;;;;30.52;14.15;;;;;;;13.27;72.05;95499.25;5051463;28;20059;-80
2023/05/20 04:14:12;;;;;;;46.92;15.70;;;;;;;13.42;71.84;95518.53;5038659;28;20487;-80
2023/05/20 04:16:37;;;;;;;27.58;13.88;;;;;;;13.35;71.98;95515.38;5052603;28;20432;-80
2023/05/20 04:19:03;;;;;;;38.88;16.70;;;;;;;13.59;71.92;95542.03;5045828;28;20045;-79
2023/05/20 04:21:28;;;;;;;28.52;14.70;;;;;;;13.62;71.98;95541.47;5040078;28;20032;-80
2023/05/20 04:23:54;;;;;;;34.53;15.23;;;;;;;13.63;72.24;95531.63;5050615;28;20075;-79
2023/05/20 04:26:21;;;;;;;30.35;14.98;;;;;;;13.68;71.93;95535.00;5052475;28;20053;-79
2023/05/20 04:28:48;;;;;;;27.73;14.93;;;;;;;13.55;72.29;95503.72;5050893;28;20037;-80
2023/05/20 04:31:14;;;;;;;38.95;20.13;;;;;;;13.79;72.48;95554.34;5050273;28;20066;-81
2023/05/20 04:33:39;;;;;;;33.10;21.67;;;;;;;13.69;72.30;95525.16;5051834;28;20094;-80
2023/05/20 04:36:14;;;;;;;40.10;22.27;;;;;;;13.94;72.03;95556.84;5050463;28;20132;-79
2023/05/20 04:38:41;;;;;;;39.45;21.48;;;;;;;13.58;72.13;95489.81;5032610;28;20044;-80
2023/05/20 04:41:06;;;;;;;41.95;21.15;;;;;;;13.29;72.14;95433.94;5050229;28;20068;-80
2023/05/20 04:43:32;;;;;;;42.42;20.48;;;;;;;13.97;72.07;95532.25;5051733;28;20071;-80
2023/05/20 04:46:04;;;;;;;34.55;19.40;;;;;;;14.21;71.64;95565.03;5050220;28;20036;-79
2023/05/20 04:48:31;;;;;;;29.58;16.52;;;;;;;13.57;71.38;95455.47;5050844;28;20037;-80
2023/05/20 04:50:56;;;;;;;33.25;16.20;;;;;;;14.33;71.16;95555.81;5043932;28;20566;-80
2023/05/20 04:53:22;;;;;;;35.65;15.05;;;;;;;14.08;70.56;95536.41;5038143;28;20041;-79
2023/05/20 04:55:55;;;;;;;26.85;15.20;;;;;;;14.27;69.91;95547.88;5051894;28;20029;-80
2023/05/20 04:58:23;;;;;;;20.13;13.55;;;;;;;14.42;69.34;95565.56;5052145;28;20036;-80
2023/05/20 05:00:49;;;;;;;28.83;13.75;;;;;;;14.12;68.66;95509.94;5051785;28;20040;-79
2023/05/20 05:03:15;;;;;;;23.35;10.80;;;;;;;14.19;68.45;95507.69;5051591;28;20036;-79
2023/05/20 05:05:41;;;;;;;19.60;11.90;;;;;;;14.34;68.57;95530.75;5051657;28;20036;-79
2023/05/20 05:08:12;;;;;;;17.90;10.70;;;;;;;14.61;68.28;95569.06;5051720;28;20480;-80
2023/05/20 05:10:38;;;;;;;22.85;10.40;;;;;;;14.55;67.63;95564.88;5051823;28;20029;-80
2023/05/20 05:13:03;;;;;;;28.20;11.85;;;;;;;13.74;67.65;95434.44;5050131;28;20095;-80
2023/05/20 05:15:29;;;;;;;26.17;10.25;;;;;;;14.23;67.05;95503.41;5049664;28;20074;-80
2023/05/20 05:17:55;;;;;;;21.55;10.52;;;;;;;14.68;66.83;95566.81;5050105;28;20036;-80
2023/05/20 05:20:20;;;;;;;18.95;10.02;;;;;;;14.04;66.62;95454.56;5050845;28;20491;-79
2023/05/20 05:22:46;;;;;;;20.02;9.68;;;;;;;14.06;66.19;95447.09;5051194;28;20418;-80
2023/05/20 05:25:13;;;;;;;23.50;10.27;;;;;;;14.70;65.92;95547.06;5052137;28;20492;-80
2023/05/20 05:27:38;;;;;;;44.72;13.00;;;;;;;14.78;65.79;95554.41;5050762;28;20090;-80
2023/05/20 05:30:06;;;;;;;54.03;11.77;;;;;;;14.85;65.49;95558.28;5052907;28;20455;-79
2023/05/20 05:32:31;;;;;;;27.65;9.35;;;;;;;14.91;65.65;95557.13;5050537;28;20025;-80
2023/05/20 05:34:57;;;;;;;18.15;10.02;;;;;;;14.96;65.29;95549.03;5051299;28;20510;-79
2023/05/20 05:37:22;;;;;;;18.83;8.65;;;;;;;14.77;65.26;95513.56;5051817;28;20479;-80
2023/05/20 05:39:48;;;;;;;22.02;9.40;;;;;;;14.76;65.05;95498.63;5050312;28;20090;-80
2023/05/20 05:42:13;;;;;;;23.65;10.80;;;;;;;14.66;65.16;95482.75;5074958;28;20546;-80
2023/05/20 05:44:39;;;;;;;19.35;10.13;;;;;;;15.02;65.33;95526.50;5037103;28;20052;-79
2023/05/20 05:47:05;;;;;;;30.63;12.02;;;;;;;14.92;65.42;95515.19;5063500;28;20051;-80
2023/05/20 05:49:31;;;;;;;27.05;11.75;;;;;;;14.83;65.15;95485.69;5031797;28;20025;-80
2023/05/20 05:51:57;;;;;;;30.35;11.38;;;;;;;15.21;65.47;95545.16;5049764;28;20040;-80
2023/05/20 05:54:22;;;;;;;22.05;10.70;;;;;;;15.24;65.25;95535.75;5050908;28;20021;-80
2023/05/20 05:56:48;;;;;;;18.38;11.43;;;;;;;15.28;64.60;95526.84;5052550;28;20029;-80
2023/05/20 05:59:15;;;;;;;19.23;9.45;;;;;;;15.52;64.18;95550.75;5050609;28;20035;-80
2023/05/20 06:01:40;;;;;;;22.63;10.60;;;;;;;15.21;63.83;95494.38;5052048;28;20025;-80
2023/05/20 06:04:05;;;;;;;25.02;10.77;;;;;;;15.36;63.48;95517.38;5050368;28;20122;-79
2023/05/20 06:06:31;;;;;;;24.80;10.90;;;;;;;15.36;63.41;95504.00;5050084;28;20025;-80
2023/05/20 06:08:56;;;;;;;18.33;10.38;;;;;;;15.40;63.07;95507.69;5050483;28;20538;-80
2023/05/20 06:11:23;;;;;;;17.65;10.38;;;;;;;15.06;62.69;95438.56;5052518;28;20084;-80
2023/05/20 06:13:49;;;;;;;18.60;11.23;;;;;;;15.47;62.69;95496.59;5052196;28;20033;-80
2023/05/20 06:16:15;;;;;;;20.58;10.65;;;;;;;15.42;62.64;95486.78;5054140;28;20146;-80
2023/05/20 06:18:41;;;;;;;24.38;11.98;;;;;;;15.67;62.20;95509.59;5041849;28;20025;-80
2023/05/20 06:21:06;;;;;;;21.55;10.82;;;;;;;15.85;62.66;95521.28;5034505;28;20044;-80
2023/05/20 06:23:32;;;;;;;22.58;11.20;;;;;;;15.68;62.21;95481.78;5048131;28;20052;-80
2023/05/20 06:25:58;;;;;;;15.63;9.32;;;;;;;15.87;61.65;95505.75;5053340;28;20025;-80
2023/05/20 06:28:25;;;;;;;23.33;10.95;;;;;;;16.04;61.08;95536.13;5037065;28;20079;-80
2023/05/20 06:30:53;;;;;;;25.60;11.05;;;;;;;15.85;61.25;95500.69;5034421;28;20128;-81
2023/05/20 06:33:19;;;;;;;22.35;11.77;;;;;;;16.09;61.63;95533.38;5051259;28;20033;-80
2023/05/20 06:35:46;;;;;;;20.02;11.10;;;;;;;16.13;61.52;95520.97;5054247;28;20433;-80
2023/05/20 06:38:12;;;;;;;18.15;9.40;;;;;;;15.92;61.07;95468.19;5051235;28;20107;-80
2023/05/20 06:40:37;;;;;;;20.30;10.38;;;;;;;16.04;61.18;95479.94;5033837;28;20029;-82
2023/05/20 06:43:02;;;;;;;26.73;11.00;;;;;;;16.14;60.87;95476.28;5041848;28;20261;-81
2023/05/20 06:45:28;;;;;;;21.83;11.27;;;;;;;15.82;60.47;95435.22;5053686;28;20124;-81
2023/05/20 06:47:53;;;;;;;19.88;10.13;;;;;;;16.33;60.54;95494.84;5047304;28;20232;-81
2023/05/20 06:50:19;;;;;;;27.02;11.63;;;;;;;16.29;61.18;95483.97;5045264;28;20057;-81
2023/05/20 06:52:45;;;;;;;24.52;9.98;;;;;;;16.27;60.77;95462.06;5055476;28;20041;-81
2023/05/20 06:55:10;;;;;;;14.52;8.00;;;;;;;16.16;59.39;95461.50;5053885;28;20490;-81
2023/05/20 06:57:36;;;;;;;17.05;8.25;;;;;;;16.50;58.63;95497.69;5086917;28;20040;-81
2023/05/20 07:00:03;;;;;;;16.33;7.88;;;;;;;16.33;58.37;95471.56;5054009;28;20083;-82
2023/05/20 07:02:28;;;;;;;16.50;8.48;;;;;;;16.75;58.39;95515.06;5053476;28;20033;-82
2023/05/20 07:04:53;;;;;;;22.90;9.60;;;;;;;16.81;58.67;95509.28;5054768;28;20033;-81
2023/05/20 07:07:19;;;;;;;13.95;8.48;;;;;;;16.58;58.17;95489.72;5053943;28;20043;-81
2023/05/20 07:09:44;;;;;;;15.80;7.88;;;;;;;16.63;58.46;95480.78;5035024;28;20049;-82
2023/05/20 07:12:10;;;;;;;15.10;8.20;;;;;;;16.77;59.81;95500.31;5036542;28;20133;-81
2023/05/20 07:14:35;;;;;;;17.23;9.10;;;;;;;16.83;59.67;95485.69;5051251;28;20029;-81
2023/05/20 07:17:01;;;;;;;15.07;8.65;;;;;;;16.95;58.11;95496.63;5048019;28;20032;-81
2023/05/20 07:19:26;;;;;;;16.05;8.52;;;;;;;16.73;58.59;95455.66;5053183;28;20029;-80
2023/05/20 07:21:52;;;;;;;15.73;8.88;;;;;;;16.78;58.77;95450.22;5053141;28;20486;-81
2023/05/20 07:24:17;;;;;;;14.82;8.23;;;;;;;16.88;57.84;95450.72;5070201;28;20044;-81
2023/05/20 07:26:43;;;;;;;18.65;8.88;;;;;;;17.02;58.36;95463.25;5046187;28;20030;-80
2023/05/20 07:29:09;;;;;;;17.83;9.15;;;;;;;16.92;56.72;95451.72;5033627;28;20040;-81
2023/05/20 07:31:34;;;;;;;17.13;9.40;;;;;;;17.17;56.66;95479.72;5034166;28;20052;-81
2023/05/20 07:34:00;;;;;;;22.13;9.18;;;;;;;17.22;57.02;95465.41;5046778;28;20033;-81
2023/05/20 07:36:26;;;;;;;25.02;8.77;;;;;;;17.10;56.34;95427.66;5053360;28;20029;-81
2023/05/20 07:38:52;;;;;;;14.02;7.72;;;;;;;17.33;55.61;95464.03;5054222;28;20707;-81
2023/05/20 07:41:17;;;;;;;16.05;8.63;;;;;;;17.32;55.67;95462.44;5036390;28;20103;-81
2023/05/20 07:43:42;;;;;;;18.10;8.68;;;;;;;17.12;56.27;95425.47;5052870;28;20072;-81
2023/05/20 07:46:08;;;;;;;11.95;7.93;;;;;;;17.64;55.22;95507.72;5053932;28;20136;-81
2023/05/20 07:48:33;;;;;;;14.80;7.90;;;;;;;17.62;53.95;95490.41;5035773;28;20099;-81
2023/05/20 07:51:00;;;;;;;14.48;7.95;;;;;;;17.46;53.30;95446.28;5054880;28;20183;-81
2023/05/20 07:53:25;;;;;;;17.13;8.13;;;;;;;17.70;53.37;95487.72;5085689;28;20044;-81
2023/05/20 07:55:51;;;;;;;12.43;7.88;;;;;;;17.58;52.50;95447.28;5053589;28;20029;-81
2023/05/20 07:58:16;;;;;;;17.15;8.75;;;;;;;17.94;52.66;95494.56;5054420;28;20029;-81
2023/05/20 08:00:43;;;;;;;19.17;8.90;;;;;;;17.94;53.30;95490.00;5054859;28;20051;-81
2023/05/20 08:03:09;;;;;;;14.95;9.68;;;;;;;17.90;54.48;95472.16;5054532;28;20033;-81
2023/05/20 08:05:38;;;;;;;18.15;8.65;;;;;;;17.84;52.98;95458.13;5052507;28;20033;-81
2023/05/20 08:08:05;;;;;;;15.20;8.80;;;;;;;17.63;53.02;95414.97;5053975;28;20588;-81
2023/05/20 08:10:30;;;;;;;15.25;8.50;;;;;;;17.37;52.83;95373.88;5054254;28;20055;-81
2023/05/20 08:12:56;;;;;;;18.17;8.20;;;;;;;18.00;52.71;95475.31;5053999;28;20039;-81
2023/05/20 08:15:21;;;;;;;15.02;7.97;;;;;;;17.44;52.89;95382.25;5052383;28;20033;-81
2023/05/20 08:17:47;;;;;;;13.30;8.10;;;;;;;17.49;52.24;95394.72;5036040;28;20099;-81
2023/05/20 08:20:13;;;;;;;14.82;7.63;;;;;;;17.61;52.10;95406.47;5034065;28;20067;-81
2023/05/20 08:22:39;;;;;;;13.95;7.80;;;;;;;17.88;52.43;95453.69;5051923;28;20487;-81
2023/05/20 08:25:07;;;;;;;13.63;7.72;;;;;;;18.01;52.62;95452.75;5085449;28;20056;-81
2023/05/20 08:27:33;;;;;;;11.93;7.97;;;;;;;17.70;52.79;95388.47;5053760;28;20447;-81
2023/05/20 08:29:58;;;;;;;16.75;8.27;;;;;;;18.17;52.10;95476.47;5052263;28;20051;-81
2023/05/20 08:32:24;;;;;;;14.65;8.18;;;;;;;17.88;52.15;95397.34;5044381;28;20065;-81
2023/05/20 08:34:49;;;;;;;14.15;8.02;;;;;;;18.12;53.85;95427.22;5042465;28;20025;-82
2023/05/20 08:37:15;;;;;;;21.50;9.23;;;;;;;18.27;54.18;95458.16;5041200;28;20068;-81
2023/05/20 08:39:40;;;;;;;20.52;8.35;;;;;;;18.12;52.66;95435.25;5044447;28;20045;-81
2023/05/20 08:42:08;;;;;;;14.05;7.80;;;;;;;18.00;52.62;95402.09;5052517;28;20483;-81
2023/05/20 08:44:34;;;;;;;18.35;7.68;;;;;;;18.25;53.07;95438.09;5038501;28;20711;-81
2023/05/20 08:47:02;;;;;;;22.83;8.68;;;;;;;18.63;53.39;95473.19;5033098;28;20041;-81
2023/05/20 08:49:28;;;;;;;11.82;7.72;;;;;;;18.67;55.08;95474.97;5048835;28;20036;-81
2023/05/20 08:51:54;;;;;;;16.80;8.07;;;;;;;18.50;55.11;95440.00;5051725;28;20059;-81
2023/05/20 08:54:22;;;;;;;14.20;7.97;;;;;;;18.65;53.32;95442.25;5035129;28;20044;-81
2023/05/20 08:56:48;;;;;;;14.95;8.13;;;;;;;18.63;52.63;95440.97;5051949;28;20036;-81
2023/05/20 08:59:15;;;;;;;11.23;7.45;;;;;;;18.92;50.54;95472.56;5085961;28;20036;-81
2023/05/20 09:01:43;;;;;;;17.30;8.02;;;;;;;18.97;50.25;95473.19;5051446;28;20098;-80
2023/05/20 09:04:08;;;;;;;12.43;8.13;;;;;;;18.94;50.71;95463.06;5032023;28;20132;-81
2023/05/20 09:06:44;;;;;;;17.13;7.55;;;;;;;18.95;50.33;95470.00;5037587;28;20064;-81
2023/05/20 09:09:13;;;;;;;16.65;8.13;;;;;;;18.79;50.48;95424.03;5045475;28;20041;-81
2023/05/20 09:11:40;;;;;;;19.63;8.40;;;;;;;19.27;50.36;95463.31;5041226;28;20047;-80
2023/05/20 09:14:07;;;;;;;14.13;7.78;;;;;;;18.99;52.59;95408.38;5053284;28;20104;-82
2023/05/20 09:16:32;;;;;;;12.95;7.70;;;;;;;18.93;52.05;95394.28;5053045;28;20109;-81
2023/05/20 09:18:58;;;;;;;10.93;7.05;;;;;;;19.54;51.12;95454.03;5053635;28;20032;-81
2023/05/20 09:21:27;;;;;;;15.57;8.68;;;;;;;19.31;53.75;95393.50;5038594;28;20040;-82
2023/05/20 09:23:56;;;;;;;15.30;8.52;;;;;;;18.59;53.50;95265.44;5047175;28;20103;-81
2023/05/20 09:26:23;;;;;;;25.88;8.48;;;;;;;19.58;50.06;95417.31;5051821;28;20052;-82
2023/05/20 09:28:49;;;;;;;16.55;7.95;;;;;;;19.70;49.50;95414.72;5083173;28;20135;-82
2023/05/20 09:31:14;;;;;;;12.63;6.97;;;;;;;19.78;50.37;95395.03;5050019;28;20061;-82
2023/05/20 09:33:40;;;;;;;14.38;8.77;;;;;;;19.99;49.92;95424.66;5047330;28;20033;-82
2023/05/20 09:36:09;;;;;;;16.13;8.32;;;;;;;20.27;48.38;95457.28;5031080;28;20080;-82
2023/05/20 09:38:39;;;;;;;11.35;8.05;;;;;;;20.41;49.13;95441.69;5034893;28;20045;-83
2023/05/20 09:41:12;;;;;;;15.23;7.63;;;;;;;20.36;49.97;95385.31;5044972;28;20037;-83
2023/05/20 09:43:39;;;;;;;13.73;7.40;;;;;;;21.03;48.63;95403.06;5040582;28;20047;-82
2023/05/20 09:46:06;;;;;;;14.35;8.27;;;;;;;21.55;45.43;95382.44;5082842;28;20025;-82
2023/05/20 09:48:35;;;;;;;10.50;7.43;;;;;;;22.52;45.46;95432.03;5049616;28;20482;-83
2023/05/20 09:51:01;;;;;;;13.88;7.05;;;;;;;23.16;43.83;95417.59;5074658;28;20423;-82
2023/05/20 09:53:27;;;;;;;11.07;6.88;;;;;;;23.45;43.70;95399.00;5056251;28;20036;-83
2023/05/20 09:55:53;;;;;;;12.48;7.15;;;;;;;24.28;41.12;95363.75;5054061;28;20029;-82
2023/05/20 09:58:19;;;;;;;9.65;6.28;;;;;;;25.27;37.88;95388.16;5056661;28;20028;-83
2023/05/20 10:00:45;;;;;;;12.73;7.03;;;;;;;25.73;37.03;95358.28;5036124;28;20040;-85
2023/05/20 10:03:12;;;;;;;23.85;7.45;;;;;;;26.10;35.62;95317.63;5053517;28;20025;-82
2023/05/20 10:05:43;;;;;;;17.75;7.60;;;;;;;27.31;34.10;95384.31;5054735;28;20090;-83
2023/05/20 10:08:22;;;;;;;9.10;5.43;;;;;;;27.67;31.89;95378.03;5054073;28;20037;-83
2023/05/20 10:11:13;;;;;;;11.88;6.65;;;;;;;27.38;32.41;95395.28;5088138;28;20061;-83
2023/05/20 10:14:06;;;;;;;10.07;6.25;;;;;;;27.40;31.69;95399.16;5053734;28;20032;-83
2023/05/20 10:16:55;;;;;;;14.23;6.68;;;;;;;27.78;31.16;95391.72;5054966;28;20519;-83
2023/05/20 10:19:30;;;;;;;9.68;6.07;;;;;;;28.26;32.06;95373.38;5055569;28;20032;-83
2023/05/20 10:22:10;;;;;;;12.65;6.25;;;;;;;28.16;31.65;95342.16;5055467;28;20032;-83
2023/05/20 10:24:37;;;;;;;9.65;5.75;;;;;;;28.49;32.44;95373.88;5054008;28;20064;-83
2023/05/20 10:27:07;;;;;;;16.77;5.50;;;;;;;28.57;30.62;95367.28;5046282;28;20033;-83
2023/05/20 10:29:43;;;;;;;12.23;5.40;;;;;;;29.01;29.12;95372.50;5051523;28;20029;-82
2023/05/20 10:32:08;;;;;;;8.82;5.30;;;;;;;28.96;29.58;95325.69;5055688;28;20024;-83
2023/05/20 10:34:46;;;;;;;5.90;4.85;;;;;;;29.05;31.62;95356.94;5038049;28;20030;-82
2023/05/20 10:37:23;;;;;;;8.50;4.93;;;;;;;29.35;28.07;95356.59;5051430;28;20472;-83
2023/05/20 10:39:48;;;;;;;9.45;4.05;;;;;;;29.39;29.12;95373.75;5054453;28;20021;-83
2023/05/20 10:42:14;;;;;;;11.68;5.00;;;;;;;29.21;27.45;95353.06;5086072;28;20115;-83
2023/05/20 10:44:44;;;;;;;10.90;4.63;;;;;;;28.62;27.98;95315.06;5052170;28;20022;-83
2023/05/20 10:47:10;;;;;;;9.55;4.80;;;;;;;28.55;28.53;95301.41;5033142;28;20041;-82
2023/05/20 10:49:40;;;;;;;9.57;4.82;;;;;;;29.08;28.20;95334.28;5039081;28;20128;-83
2023/05/20 10:52:09;;;;;;;8.48;4.28;;;;;;;29.06;29.37;95324.94;5053025;28;20489;-83
2023/05/20 10:54:36;;;;;;;11.73;5.50;;;;;;;29.48;28.95;95351.53;5053163;28;20029;-84
2023/05/20 10:57:08;;;;;;;6.35;4.68;;;;;;;29.56;27.81;95347.63;5032863;28;20039;-83
2023/05/20 10:59:35;;;;;;;9.07;4.75;;;;;;;29.31;28.38;95305.81;5053239;28;20120;-83
2023/05/20 11:02:01;;;;;;;14.38;4.80;;;;;;;29.43;28.94;95324.59;5054067;28;20039;-83
2023/05/20 11:04:28;;;;;;;11.77;5.63;;;;;;;30.11;28.21;95333.50;5052762;28;20036;-83
2023/05/20 11:06:54;;;;;;;7.65;5.22;;;;;;;29.41;29.10;95297.66;5053450;28;20560;-83
2023/05/20 11:09:21;;;;;;;12.68;5.85;;;;;;;29.17;28.08;95291.00;5053871;28;20041;-82
2023/05/20 11:11:47;;;;;;;8.93;4.82;;;;;;;29.02;28.04;95300.34;5054128;28;20096;-83
2023/05/20 11:14:13;;;;;;;12.88;5.30;;;;;;;28.14;29.58;95308.25;5086134;28;20044;-82
2023/05/20 11:16:41;;;;;;;9.38;4.90;;;;;;;27.81;29.91;95243.81;5052729;28;20110;-83
2023/05/20 11:19:08;;;;;;;6.55;4.97;;;;;;;27.82;31.03;95321.69;5053694;28;20371;-83